Time;durP1;ratioP1;P1;durP2;ratioP2;P2;SDS_P1;SDS_P2;PMS_P1;PMS_P2;Temp;Humidity;BMP_temperature;BMP_pressure;BME280_temperature;BME280_humidity;BME280_pressure;Samples;Min_cycle;Max_cycle;Signal;HPM_P1;HPM_P2
2021/08/02 00:02:08;;;;;;;1.88;1.40;;;;;;;16.75;79.48;95392.44;5039049;28;20288;-87
2021/08/02 00:04:49;;;;;;;2.47;1.33;;;;;;;16.70;80.10;95404.53;5053276;28;20197;-86
2021/08/02 00:07:21;;;;;;;2.10;1.65;;;;;;;16.68;79.53;95407.34;5053053;28;20692;-88
2021/08/02 00:09:58;;;;;;;2.00;1.40;;;;;;;16.77;78.88;95400.03;5053069;28;20721;-86
2021/08/02 00:12:29;;;;;;;2.53;1.35;;;;;;;16.71;78.68;95398.34;5053220;28;20297;-86
2021/08/02 00:14:58;;;;;;;4.20;1.55;;;;;;;16.67;79.36;95404.97;5053302;28;20884;-87
2021/08/02 00:17:29;;;;;;;1.88;1.25;;;;;;;16.74;79.03;95408.31;5053159;28;20208;-86
2021/08/02 00:19:56;;;;;;;1.63;1.30;;;;;;;16.67;78.34;95408.38;5052723;28;20608;-86
2021/08/02 00:22:31;;;;;;;1.50;1.40;;;;;;;16.67;78.77;95405.78;5053387;28;20205;-86
2021/08/02 00:24:59;;;;;;;3.25;1.70;;;;;;;16.69;78.67;95401.16;5053434;28;20290;-87
2021/08/02 00:27:26;;;;;;;2.58;1.67;;;;;;;16.76;78.78;95395.84;5053323;28;20239;-88
2021/08/02 00:29:56;;;;;;;1.52;1.42;;;;;;;16.72;78.59;95400.72;5053412;28;20384;-87
2021/08/02 00:32:26;;;;;;;4.70;1.70;;;;;;;16.74;78.42;95395.31;5053346;28;20280;-86
2021/08/02 00:34:53;;;;;;;1.85;1.50;;;;;;;16.72;78.14;95403.31;5052722;28;20426;-86
2021/08/02 00:37:34;;;;;;;1.80;1.70;;;;;;;16.76;78.39;95398.44;5052965;28;20708;-86
2021/08/02 00:40:04;;;;;;;1.70;1.50;;;;;;;16.80;78.42;95399.59;5052742;28;20710;-87
2021/08/02 00:42:59;;;;;;;2.90;1.60;;;;;;;16.81;77.89;95398.59;5052889;28;20700;-87
2021/08/02 00:45:34;;;;;;;1.40;1.30;;;;;;;16.77;77.85;95397.44;5052188;28;20272;-87
2021/08/02 00:48:10;;;;;;;2.13;1.70;;;;;;;16.79;78.22;95398.81;5052687;28;20227;-88
2021/08/02 00:50:50;;;;;;;1.60;1.50;;;;;;;16.75;78.41;95394.25;5052840;28;20565;-86
2021/08/02 00:53:20;;;;;;;2.22;1.60;;;;;;;16.74;78.21;95388.25;5052051;28;20205;-86
2021/08/02 00:56:00;;;;;;;1.90;1.80;;;;;;;16.69;78.86;95395.16;5051917;28;20217;-87
2021/08/02 00:58:30;;;;;;;2.53;1.58;;;;;;;16.68;78.78;95396.97;5052322;28;20193;-86
2021/08/02 01:01:07;;;;;;;1.60;1.50;;;;;;;16.64;78.82;95400.22;5052222;28;20239;-86
2021/08/02 01:03:34;;;;;;;3.08;1.67;;;;;;;16.63;78.51;95399.41;5051886;28;20569;-86
2021/08/02 01:06:04;;;;;;;3.40;1.63;;;;;;;16.67;78.79;95391.97;5051674;28;20233;-87
2021/08/02 01:08:39;;;;;;;2.38;1.55;;;;;;;16.69;78.62;95398.56;5052418;28;20221;-87
2021/08/02 01:11:31;;;;;;;1.80;1.70;;;;;;;16.72;78.56;95402.53;5052957;28;20201;-86
2021/08/02 01:14:21;;;;;;;1.92;1.75;;;;;;;16.74;77.50;95398.66;5052672;28;20296;-87
2021/08/02 01:16:54;;;;;;;3.75;1.70;;;;;;;16.76;77.77;95411.44;5052566;28;20595;-87
2021/08/02 01:19:38;;;;;;;2.78;1.73;;;;;;;16.76;77.52;95409.66;5052554;28;20300;-86
2021/08/02 01:22:05;;;;;;;3.92;1.73;;;;;;;16.67;78.66;95405.78;5052539;28;20205;-87
2021/08/02 01:24:37;;;;;;;2.47;1.73;;;;;;;16.69;78.35;95408.94;5051819;28;20208;-86
2021/08/02 01:27:39;;;;;;;2.28;1.90;;;;;;;16.69;78.45;95403.75;5052063;28;20264;-86
2021/08/02 01:30:17;;;;;;;1.88;1.75;;;;;;;16.74;78.47;95401.25;5043101;28;20284;-87
2021/08/02 01:32:49;;;;;;;2.08;1.80;;;;;;;16.79;77.67;95401.41;5052607;28;20216;-87
2021/08/02 01:35:24;;;;;;;1.73;1.63;;;;;;;16.75;77.90;95404.66;5051482;28;20228;-86
2021/08/02 01:37:59;;;;;;;3.40;1.70;;;;;;;16.76;77.85;95403.66;5051467;28;20192;-87
2021/08/02 01:40:37;;;;;;;4.15;1.90;;;;;;;16.75;77.50;95409.84;5051486;28;20204;-87
2021/08/02 01:43:06;;;;;;;3.70;1.73;;;;;;;16.73;77.86;95409.31;5051341;28;20202;-87
2021/08/02 01:45:48;;;;;;;3.05;1.70;;;;;;;16.73;77.83;95412.69;5051463;28;20359;-86
2021/08/02 01:48:18;;;;;;;3.30;1.90;;;;;;;16.71;78.42;95425.13;5051969;28;20221;-86
2021/08/02 01:50:57;;;;;;;1.70;1.60;;;;;;;16.72;77.97;95413.72;5051571;28;20231;-86
2021/08/02 01:53:44;;;;;;;2.03;1.77;;;;;;;16.70;78.62;95422.75;5051771;28;20247;-86
2021/08/02 01:56:18;;;;;;;2.05;1.85;;;;;;;16.68;78.26;95420.34;5051113;28;20221;-88
2021/08/02 01:59:07;;;;;;;2.33;2.00;;;;;;;16.72;78.02;95418.91;5051158;28;20664;-86
2021/08/02 02:01:39;;;;;;;2.30;1.83;;;;;;;16.75;77.94;95430.66;5030902;28;20267;-87
2021/08/02 02:04:07;;;;;;;1.98;1.80;;;;;;;16.77;78.08;95428.63;5030766;28;20191;-87
2021/08/02 02:06:41;;;;;;;2.80;2.00;;;;;;;16.73;78.02;95428.31;5029694;28;20788;-87
2021/08/02 02:09:10;;;;;;;3.05;1.80;;;;;;;16.71;77.99;95430.31;5030820;28;20214;-87
2021/08/02 02:11:46;;;;;;;2.10;1.85;;;;;;;16.68;77.86;95432.56;5030903;28;20229;-87
2021/08/02 02:14:13;;;;;;;3.97;2.38;;;;;;;16.68;78.15;95425.56;5030753;28;20897;-87
2021/08/02 02:16:51;;;;;;;3.90;2.13;;;;;;;16.70;77.83;95425.34;5031123;28;20222;-87
2021/08/02 02:19:37;;;;;;;4.20;2.25;;;;;;;16.77;77.85;95429.44;5031044;28;20202;-86
2021/08/02 02:22:08;;;;;;;2.63;1.75;;;;;;;16.76;78.52;95433.03;5030825;28;20206;-87
2021/08/02 02:24:37;;;;;;;2.40;2.10;;;;;;;16.77;78.03;95424.22;5030653;28;20198;-86
2021/08/02 02:27:15;;;;;;;3.05;1.98;;;;;;;16.79;77.96;95422.22;5031035;28;20605;-86
2021/08/02 02:29:48;;;;;;;5.55;2.20;;;;;;;16.75;77.50;95426.25;5030947;28;20227;-86
2021/08/02 02:32:17;;;;;;;2.63;2.05;;;;;;;16.73;78.34;95428.31;5031560;28;20198;-86
2021/08/02 02:34:45;;;;;;;3.20;2.10;;;;;;;16.76;78.07;95419.25;5030855;28;20240;-87
2021/08/02 02:37:24;;;;;;;4.25;2.28;;;;;;;16.79;77.46;95421.41;5031662;28;20228;-86
2021/08/02 02:39:53;;;;;;;2.67;2.03;;;;;;;16.81;77.46;95424.59;5031026;28;20208;-86
2021/08/02 02:42:27;;;;;;;2.28;2.10;;;;;;;16.82;77.20;95426.19;5046976;28;20233;-86
2021/08/02 02:44:59;;;;;;;2.90;2.03;;;;;;;16.84;77.44;95429.38;5034855;28;20743;-86
2021/08/02 02:47:27;;;;;;;2.30;2.00;;;;;;;16.85;77.33;95423.94;5048406;28;20212;-87
2021/08/02 02:49:59;;;;;;;2.90;2.40;;;;;;;16.82;77.09;95431.38;5049628;28;20875;-87
2021/08/02 02:52:27;;;;;;;3.53;2.33;;;;;;;16.75;76.99;95439.25;5049955;28;20205;-86
2021/08/02 02:55:02;;;;;;;2.67;2.03;;;;;;;16.76;76.83;95432.25;5047743;28;20740;-86
2021/08/02 02:57:30;;;;;;;3.50;2.30;;;;;;;16.76;76.68;95429.66;5048282;28;20186;-86
2021/08/02 02:59:59;;;;;;;2.20;2.00;;;;;;;16.77;77.30;95432.03;5050666;28;20204;-87
2021/08/02 03:02:27;;;;;;;2.60;2.25;;;;;;;16.81;76.88;95429.78;5050390;28;20240;-86
2021/08/02 03:04:58;;;;;;;2.70;2.50;;;;;;;16.82;76.61;95428.78;5049465;28;20316;-87
2021/08/02 03:07:37;;;;;;;2.90;2.60;;;;;;;16.84;75.95;95426.75;5050239;28;20214;-86
2021/08/02 03:10:06;;;;;;;2.78;2.58;;;;;;;16.86;75.70;95432.53;5050014;28;20245;-86
2021/08/02 03:12:34;;;;;;;2.70;2.38;;;;;;;16.85;75.74;95436.16;5050174;28;20204;-86
2021/08/02 03:15:02;;;;;;;3.03;2.50;;;;;;;16.81;75.82;95432.41;5049954;28;20237;-86
2021/08/02 03:17:33;;;;;;;2.83;2.63;;;;;;;16.76;75.59;95440.06;5050146;28;20205;-87
2021/08/02 03:20:00;;;;;;;3.83;2.58;;;;;;;16.77;75.77;95437.22;5051965;28;20282;-86
2021/08/02 03:22:36;;;;;;;2.65;2.30;;;;;;;16.81;75.91;95445.41;5054466;28;20197;-87
2021/08/02 03:25:17;;;;;;;3.92;2.70;;;;;;;16.82;75.94;95444.38;5054551;28;20221;-87
2021/08/02 03:27:53;;;;;;;3.10;2.72;;;;;;;16.84;75.76;95443.16;5054573;28;20215;-87
2021/08/02 03:30:26;;;;;;;3.47;2.80;;;;;;;16.87;75.73;95439.34;5054667;28;20798;-86
2021/08/02 03:32:58;;;;;;;3.53;2.45;;;;;;;16.87;75.90;95437.53;5054386;28;20205;-87
2021/08/02 03:35:25;;;;;;;4.63;2.50;;;;;;;16.88;76.09;95443.53;5054203;28;20761;-88
2021/08/02 03:37:56;;;;;;;5.00;2.45;;;;;;;16.90;76.06;95442.28;5054242;28;20205;-88
2021/08/02 03:40:23;;;;;;;3.67;2.80;;;;;;;16.87;76.32;95444.53;5054983;28;20277;-88
2021/08/02 03:42:54;;;;;;;2.85;2.55;;;;;;;16.89;76.32;95442.50;5054433;28;20207;-87
2021/08/02 03:45:31;;;;;;;2.85;2.55;;;;;;;16.89;76.28;95434.72;5054481;28;20213;-87
2021/08/02 03:48:02;;;;;;;3.22;2.75;;;;;;;16.90;76.30;95438.91;5054261;28;20739;-86
2021/08/02 03:50:34;;;;;;;2.85;2.58;;;;;;;16.91;76.81;95449.09;5054198;28;20225;-87
2021/08/02 03:53:05;;;;;;;4.03;2.80;;;;;;;16.92;76.96;95460.28;5053665;28;20218;-87
2021/08/02 03:55:33;;;;;;;3.03;2.80;;;;;;;16.86;77.02;95463.75;5054659;28;20248;-87
2021/08/02 03:58:07;;;;;;;4.18;2.80;;;;;;;16.83;77.24;95467.56;5053966;28;20578;-86
2021/08/02 04:00:38;;;;;;;3.28;2.67;;;;;;;16.86;76.80;95471.56;5054150;28;20201;-87
2021/08/02 04:03:10;;;;;;;3.00;2.70;;;;;;;16.78;77.90;95467.44;5053664;28;20202;-87
2021/08/02 04:05:37;;;;;;;3.40;2.78;;;;;;;16.79;77.63;95484.63;5053731;28;20845;-87
2021/08/02 04:08:05;;;;;;;4.43;2.85;;;;;;;16.80;77.64;95490.63;5054185;28;20229;-87
2021/08/02 04:10:34;;;;;;;3.05;2.80;;;;;;;16.74;78.09;95496.69;5053713;28;20224;-87
2021/08/02 04:13:02;;;;;;;3.92;2.70;;;;;;;16.71;77.79;95497.13;5052902;28;20232;-88
2021/08/02 04:15:29;;;;;;;2.63;2.42;;;;;;;16.76;77.43;95503.25;5053837;28;20434;-86
2021/08/02 04:17:56;;;;;;;3.38;2.88;;;;;;;16.83;76.87;95505.78;5053251;28;20243;-88
2021/08/02 04:20:25;;;;;;;3.03;2.72;;;;;;;16.88;76.54;95505.94;5053709;28;20197;-86
2021/08/02 04:22:51;;;;;;;3.28;2.97;;;;;;;16.87;76.70;95515.53;5053216;28;20216;-87
2021/08/02 04:25:18;;;;;;;2.95;2.70;;;;;;;16.89;76.14;95523.13;5053563;28;20220;-87
2021/08/02 04:27:44;;;;;;;3.28;2.85;;;;;;;16.89;75.78;95521.31;5053455;28;20213;-87
2021/08/02 04:30:13;;;;;;;3.78;2.67;;;;;;;16.92;75.60;95513.09;5052440;28;20229;-88
2021/08/02 04:32:43;;;;;;;3.60;2.83;;;;;;;16.92;75.17;95520.09;5052917;28;20217;-86
2021/08/02 04:35:10;;;;;;;4.05;2.88;;;;;;;16.97;75.12;95522.81;5053537;28;20257;-87
2021/08/02 04:37:36;;;;;;;3.38;2.85;;;;;;;16.97;74.87;95525.44;5053420;28;20201;-88
2021/08/02 04:40:04;;;;;;;3.15;2.53;;;;;;;16.93;75.85;95524.28;5053907;28;20225;-87
2021/08/02 04:42:34;;;;;;;2.85;2.60;;;;;;;16.90;76.03;95524.72;5053883;28;20194;-86
2021/08/02 04:45:00;;;;;;;3.30;2.83;;;;;;;16.92;76.10;95523.50;5053845;28;20221;-88
2021/08/02 04:47:28;;;;;;;4.78;3.60;;;;;;;16.97;75.47;95528.03;5054074;28;20198;-87
2021/08/02 04:49:54;;;;;;;3.30;2.95;;;;;;;16.93;74.51;95521.69;5053243;28;20224;-87
2021/08/02 04:52:21;;;;;;;3.72;2.92;;;;;;;16.95;74.62;95521.44;5053499;28;20208;-87
2021/08/02 04:54:47;;;;;;;6.55;5.68;;;;;;;16.98;74.69;95521.81;5053270;28;20202;-86
2021/08/02 04:57:17;;;;;;;19.50;17.40;;;;;;;16.87;75.90;95517.34;5053610;28;20197;-86
2021/08/02 04:59:43;;;;;;;11.27;10.20;;;;;;;16.80;77.19;95519.22;5053891;28;20881;-86
2021/08/02 05:02:10;;;;;;;4.32;3.92;;;;;;;16.84;76.37;95525.59;5053875;28;20228;-87
2021/08/02 05:04:38;;;;;;;5.63;3.30;;;;;;;16.94;75.53;95520.66;5053207;28;20198;-86
2021/08/02 05:07:05;;;;;;;4.20;3.80;;;;;;;17.01;75.08;95518.00;5053498;28;20272;-87
2021/08/02 05:09:31;;;;;;;3.58;2.85;;;;;;;17.07;74.72;95520.53;5053903;28;20221;-88
2021/08/02 05:11:57;;;;;;;3.65;2.97;;;;;;;17.11;74.93;95523.50;5053216;28;20620;-87
2021/08/02 05:14:27;;;;;;;3.10;2.80;;;;;;;17.08;74.36;95514.31;5052695;28;20858;-87
2021/08/02 05:16:53;;;;;;;3.85;3.00;;;;;;;17.17;74.38;95512.97;5053124;28;20221;-87
2021/08/02 05:19:19;;;;;;;3.90;3.50;;;;;;;17.24;74.52;95520.72;5053256;28;20206;-86
2021/08/02 05:21:50;;;;;;;3.13;2.83;;;;;;;17.17;75.02;95518.19;5052759;28;20622;-86
2021/08/02 05:24:19;;;;;;;2.97;2.78;;;;;;;17.15;75.17;95515.00;5053216;28;20591;-87
2021/08/02 05:26:46;;;;;;;3.08;2.78;;;;;;;17.24;75.14;95513.69;5052465;28;20237;-87
2021/08/02 05:29:12;;;;;;;5.25;2.90;;;;;;;17.28;74.52;95516.66;5053041;28;20217;-87
2021/08/02 05:31:38;;;;;;;3.30;3.00;;;;;;;17.37;74.36;95511.94;5052935;28;20217;-86
2021/08/02 05:34:05;;;;;;;5.32;3.20;;;;;;;17.44;74.05;95510.06;5052458;28;20213;-87
2021/08/02 05:36:31;;;;;;;3.78;3.15;;;;;;;17.46;74.25;95510.63;5052693;28;20225;-87
2021/08/02 05:39:00;;;;;;;4.30;3.10;;;;;;;17.50;74.45;95509.19;5052854;28;20209;-86
2021/08/02 05:41:26;;;;;;;4.13;3.03;;;;;;;17.55;74.24;95510.09;5051115;28;20732;-87
2021/08/02 05:43:56;;;;;;;3.97;3.03;;;;;;;17.63;73.62;95513.41;5051912;28;20201;-86
2021/08/02 05:46:22;;;;;;;3.50;3.20;;;;;;;17.71;73.20;95510.50;5051550;28;20221;-86
2021/08/02 05:48:49;;;;;;;3.40;2.95;;;;;;;17.75;73.17;95514.25;5050458;28;20204;-86
2021/08/02 05:51:20;;;;;;;3.53;3.22;;;;;;;17.68;72.40;95513.56;5050476;28;20229;-86
2021/08/02 05:53:46;;;;;;;3.33;3.03;;;;;;;17.69;72.26;95508.13;5049977;28;20668;-87
2021/08/02 05:56:17;;;;;;;4.03;3.03;;;;;;;17.84;72.31;95521.53;5050570;28;20217;-86
2021/08/02 05:58:48;;;;;;;3.78;3.30;;;;;;;18.00;72.23;95521.91;5050394;28;20236;-87
2021/08/02 06:01:17;;;;;;;3.53;3.03;;;;;;;18.06;71.48;95531.44;5050354;28;20767;-86
2021/08/02 06:03:47;;;;;;;3.88;3.00;;;;;;;18.03;70.63;95524.06;5049145;28;20280;-86
2021/08/02 06:06:21;;;;;;;3.58;3.28;;;;;;;18.01;69.33;95524.28;5049160;28;20236;-87
2021/08/02 06:08:56;;;;;;;6.63;3.03;;;;;;;18.02;70.03;95530.28;5045199;28;20596;-86
2021/08/02 06:11:28;;;;;;;3.13;2.80;;;;;;;17.95;69.48;95538.19;5047754;28;20196;-88
2021/08/02 06:14:05;;;;;;;3.08;2.88;;;;;;;17.98;69.56;95540.34;5049358;28;20189;-87
2021/08/02 06:16:33;;;;;;;4.00;3.22;;;;;;;18.05;69.57;95541.06;5049696;28;20217;-87
2021/08/02 06:18:59;;;;;;;3.25;2.92;;;;;;;18.02;69.70;95543.31;5049394;28;20209;-87
2021/08/02 06:21:26;;;;;;;3.42;3.13;;;;;;;18.12;70.21;95544.34;5049749;28;20739;-86
2021/08/02 06:24:04;;;;;;;2.97;2.78;;;;;;;18.00;68.88;95547.94;5049137;28;20197;-87
2021/08/02 06:26:49;;;;;;;;;;;;;;;;;;;;;
2021/08/02 06:35:49;;;;;;;2.95;2.75;;;;;;;18.26;69.40;95563.19;5039021;28;20389;-88
2021/08/02 06:38:33;;;;;;;;;;;;;;;;;;;;;
2021/08/02 06:41:01;;;;;;;3.25;3.05;;;;;;;18.47;68.79;95564.47;5049745;28;20223;-88
2021/08/02 06:50:40;;;;;;;4.60;3.15;;;;;;;18.83;68.06;95566.88;4939169;28;20254;-87
2021/08/02 06:53:53;;;;;;;3.25;2.80;;;;;;;18.80;67.02;95564.72;4986772;28;20302;-90
2021/08/02 06:56:23;;;;;;;3.13;2.60;;;;;;;18.80;67.22;95577.75;5019532;28;20634;-88
2021/08/02 06:59:02;;;;;;;2.83;2.42;;;;;;;18.86;67.15;95570.81;5049057;28;20563;-88
2021/08/02 07:01:31;;;;;;;2.67;2.47;;;;;;;18.89;66.20;95573.75;5048973;28;20296;-88
2021/08/02 07:04:12;;;;;;;2.58;2.38;;;;;;;18.77;65.89;95566.97;5048415;28;20251;-88
2021/08/02 07:06:41;;;;;;;2.70;2.50;;;;;;;18.72;66.86;95578.09;5052160;28;20297;-85
2021/08/02 07:09:13;;;;;;;3.03;2.58;;;;;;;18.72;66.32;95566.84;5050589;28;20741;-86
2021/08/02 07:11:46;;;;;;;3.13;2.70;;;;;;;18.69;66.50;95570.72;5048907;28;20647;-88
2021/08/02 07:14:17;;;;;;;3.03;2.47;;;;;;;18.80;66.84;95576.97;5048469;28;20216;-88
2021/08/02 07:16:52;;;;;;;3.13;2.70;;;;;;;18.74;66.45;95576.06;5049101;28;20274;-87
2021/08/02 07:19:32;;;;;;;2.80;2.47;;;;;;;18.82;65.74;95574.94;5049137;28;20212;-85
2021/08/02 07:22:07;;;;;;;2.97;2.42;;;;;;;18.83;66.26;95581.72;5049328;28;20201;-88
2021/08/02 07:24:40;;;;;;;2.60;2.40;;;;;;;18.91;66.74;95583.97;5049350;28;20567;-88
2021/08/02 07:30:08;;;;;;;2.40;2.20;;;;;;;19.01;66.52;95579.00;5040285;28;20229;-89
2021/08/02 07:32:51;;;;;;;2.92;2.47;;;;;;;19.22;65.34;95585.44;5050200;28;20217;-88
2021/08/02 07:35:18;;;;;;;3.00;2.70;;;;;;;19.24;65.16;95575.56;5047887;28;20221;-87
2021/08/02 07:37:53;;;;;;;3.35;2.60;;;;;;;19.22;64.74;95574.97;5049442;28;20202;-88
2021/08/02 07:40:37;;;;;;;2.90;2.67;;;;;;;19.25;65.72;95575.28;5049961;28;20543;-87
2021/08/02 07:45:57;;;;;;;4.28;2.78;;;;;;;19.37;64.69;95575.28;5043135;28;20933;-87
2021/08/02 07:48:52;;;;;;;2.60;2.40;;;;;;;19.27;64.52;95575.06;5048380;28;20798;-88
2021/08/02 07:51:41;;;;;;;2.88;2.60;;;;;;;19.18;64.56;95576.47;5047794;28;20322;-88
2021/08/02 07:54:40;;;;;;;3.63;2.75;;;;;;;19.19;65.13;95570.22;5048791;28;20284;-87
2021/08/02 08:00:19;;;;;;;3.08;2.47;;;;;;;19.17;65.74;95572.25;5050179;28;20208;-87
2021/08/02 08:03:50;;;;;;;;;;;;;;;;;;;;;
2021/08/02 08:06:30;;;;;;;3.05;2.42;;;;;;;19.28;66.53;95567.00;4977396;28;20261;-87
2021/08/02 08:12:27;;;;;;;3.33;3.03;;;;;;;19.29;66.97;95563.38;5052548;28;20205;-87
2021/08/02 08:18:04;;;;;;;3.10;2.90;;;;;;;19.25;68.35;95561.44;5051835;28;20194;-87
2021/08/02 08:20:46;;;;;;;3.15;2.95;;;;;;;19.27;68.24;95564.63;5051959;28;20610;-88
2021/08/02 08:23:32;;;;;;;3.13;2.60;;;;;;;19.37;67.57;95572.66;5051544;28;20288;-88
2021/08/02 08:33:17;;;;;;;4.15;3.60;;;;;;;19.54;65.26;95581.38;5041975;28;20217;-87
2021/08/02 08:36:11;;;;;;;4.43;3.05;;;;;;;19.72;66.22;95577.81;5049368;28;20731;-88
2021/08/02 08:38:44;;;;;;;4.97;3.15;;;;;;;19.87;65.57;95580.69;5048040;28;20254;-86
2021/08/02 08:41:13;;;;;;;3.33;3.03;;;;;;;19.77;67.57;95584.94;5050220;28;20194;-88
2021/08/02 08:44:13;;;;;;;3.63;3.10;;;;;;;19.63;68.45;95592.25;5051485;28;20286;-85
2021/08/02 08:46:52;;;;;;;6.07;3.15;;;;;;;19.51;67.91;95579.25;5039718;28;20213;-87
2021/08/02 08:58:49;;;;;;;2.60;2.40;;;;;;;19.56;66.53;95587.19;1451344;26;20634;-87
2021/08/02 09:01:39;;;;;;;2.50;2.30;;;;;;;19.69;65.54;95583.50;5030800;28;20226;-87
2021/08/02 09:04:20;;;;;;;3.53;2.45;;;;;;;19.72;66.27;95577.81;5030539;28;20237;-87
2021/08/02 09:07:02;;;;;;;2.40;2.20;;;;;;;19.76;64.88;95576.31;5029996;28;20292;-86
2021/08/02 09:09:35;;;;;;;3.05;2.35;;;;;;;19.78;63.99;95578.69;5031068;28;20213;-86
2021/08/02 09:12:32;;;;;;;4.80;2.38;;;;;;;19.90;63.93;95577.59;5030731;28;20218;-87
2021/08/02 09:21:20;;;;;;;3.42;2.70;;;;;;;20.23;62.34;95570.81;4911437;29;20317;-87
2021/08/02 09:24:29;;;;;;;3.25;2.72;;;;;;;20.05;63.53;95571.03;4961750;28;20289;-87
2021/08/02 09:27:14;;;;;;;2.75;2.33;;;;;;;19.89;61.71;95577.84;5031453;28;20305;-87
2021/08/02 09:30:01;;;;;;;3.22;2.13;;;;;;;19.79;60.80;95582.91;5031923;28;20209;-87
2021/08/02 09:32:48;;;;;;;2.97;2.30;;;;;;;19.99;61.68;95580.66;5030631;28;20683;-86
2021/08/02 09:50:49;;;;;;;;;;;;;;;;;;;;;
2021/08/02 09:54:00;;;;;;;3.78;2.75;;;;;;;20.88;57.29;95571.06;4969765;28;20204;-88
2021/08/02 10:28:00;;;;;;;;;;;;;;;;;;;;;
2021/08/02 10:35:12;;;;;;;;;;;;;;;;;;;;;
2021/08/02 10:38:21;;;;;;;2.28;2.10;;;;;;;21.51;56.61;95548.84;4915418;29;20209;-89
2021/08/02 10:44:32;;;;;;;2.30;2.10;;;;;;;21.35;57.50;95542.63;4931227;29;20280;-87
2021/08/02 10:50:43;;;;;;;3.40;2.10;;;;;;;20.99;60.26;95551.03;5009381;28;20282;-89
2021/08/02 10:59:44;;;;;;;3.33;1.90;;;;;;;21.47;61.33;95542.50;4994747;28;20666;-89
2021/08/02 11:02:47;;;;;;;2.00;1.90;;;;;;;21.69;60.95;95540.63;5013957;28;20253;-87
2021/08/02 11:05:49;;;;;;;2.20;2.00;;;;;;;21.84;60.42;95547.06;4985180;28;20337;-88
2021/08/02 11:08:28;;;;;;;2.17;1.75;;;;;;;21.62;58.93;95540.03;5013509;28;20233;-88
2021/08/02 11:25:16;;;;;;;;;;;;;;;;;;;;;
2021/08/02 11:31:52;;;;;;;2.25;1.83;;;;;;;22.63;53.88;95523.59;4992274;28;20428;-87
2021/08/02 11:37:50;;;;;;;2.50;2.30;;;;;;;22.44;55.58;95514.53;4985025;28;20330;-88
2021/08/02 11:40:45;;;;;;;2.60;2.33;;;;;;;22.33;57.50;95511.03;5004663;28;20206;-88
2021/08/02 11:46:24;;;;;;;2.10;1.95;;;;;;;22.12;57.55;95512.75;5014319;28;20233;-88
2021/08/02 11:49:03;;;;;;;2.53;2.15;;;;;;;22.05;57.79;95514.78;5016232;28;20665;-87
2021/08/02 11:51:34;;;;;;;2.25;2.03;;;;;;;22.33;57.28;95505.78;5016889;28;20226;-87
2021/08/02 11:57:45;;;;;;;3.50;1.63;;;;;;;23.25;54.35;95515.00;4955005;29;20204;-87
2021/08/02 12:04:02;;;;;;;2.95;2.05;;;;;;;23.34;51.91;95510.81;5005606;28;20272;-88
2021/08/02 12:06:55;;;;;;;1.80;1.70;;;;;;;23.22;50.73;95505.00;4986615;28;20238;-87
2021/08/02 12:10:14;;;;;;;2.38;1.60;;;;;;;22.81;50.56;95510.06;5016206;28;20249;-87
2021/08/02 12:13:17;;;;;;;2.38;1.80;;;;;;;22.67;51.28;95514.97;5015870;28;20709;-87
2021/08/02 12:16:13;;;;;;;1.65;1.55;;;;;;;22.64;51.38;95509.41;5013669;28;20294;-88
2021/08/02 12:51:08;;;;;;;1.70;1.42;;;;;;;24.08;45.35;95476.22;4992351;28;20203;-88
2021/08/02 12:56:38;;;;;;;2.00;1.40;;;;;;;24.45;44.04;95468.84;5057404;28;20221;-87
2021/08/02 13:00:22;;;;;;;;;;;;;;;;;;;;;
2021/08/02 13:10:38;;;;;;;;;;;;;;;;;;;;;
2021/08/02 13:17:38;;;;;;;;;;;;;;;;;;;;;
2021/08/02 13:26:57;;;;;;;2.15;1.80;;;;;;;23.77;47.77;95459.66;4962083;28;20286;-88
2021/08/02 13:29:46;;;;;;;2.20;1.63;;;;;;;24.03;47.65;95463.09;4993302;28;20215;-87
2021/08/02 13:52:07;;;;;;;1.70;1.58;;;;;;;24.43;45.51;95446.50;5010493;28;20223;-87
2021/08/02 13:59:52;;;;;;;1.55;1.45;;;;;;;24.06;44.04;95438.88;4995836;22;20312;-87
2021/08/02 14:02:22;;;;;;;3.75;1.40;;;;;;;23.97;44.44;95445.72;5032375;28;20190;-88
2021/08/02 14:08:27;;;;;;;2.88;1.58;;;;;;;24.28;44.99;95433.34;4987636;28;20821;-89
2021/08/02 14:43:08;;;;;;;1.60;1.50;;;;;;;24.25;43.75;95431.25;4781244;29;20205;-85
2021/08/02 14:45:42;;;;;;;1.75;1.50;;;;;;;24.41;43.82;95432.81;4828623;29;20239;-83
2021/08/02 14:48:09;;;;;;;2.20;1.50;;;;;;;24.53;43.87;95427.25;4899887;29;20209;-84
2021/08/02 14:50:38;;;;;;;1.35;1.23;;;;;;;24.62;44.26;95436.97;4985005;28;20274;-84
2021/08/02 14:53:09;;;;;;;1.70;1.42;;;;;;;24.33;45.46;95430.72;4988750;28;20230;-83
2021/08/02 14:55:37;;;;;;;1.90;1.70;;;;;;;24.10;45.10;95429.41;5002007;28;20725;-84
2021/08/02 14:58:05;;;;;;;1.88;1.77;;;;;;;23.92;45.65;95432.56;5008742;28;20218;-84
2021/08/02 15:00:32;;;;;;;1.65;1.55;;;;;;;23.67;45.89;95435.97;5008770;28;20235;-84
2021/08/02 15:03:01;;;;;;;1.80;1.50;;;;;;;23.89;45.61;95430.47;5008933;28;20245;-84
2021/08/02 15:05:29;;;;;;;1.65;1.55;;;;;;;23.92;45.30;95428.09;5007563;28;20261;-83
2021/08/02 15:07:57;;;;;;;1.70;1.60;;;;;;;23.73;46.68;95429.69;5008342;28;20228;-84
2021/08/02 15:10:24;;;;;;;2.67;1.85;;;;;;;23.62;47.68;95434.16;5008465;28;20253;-85
2021/08/02 15:12:50;;;;;;;3.83;2.17;;;;;;;23.50;46.94;95428.31;5008157;28;20226;-84
2021/08/02 15:15:19;;;;;;;2.30;2.10;;;;;;;23.38;46.89;95431.22;5007536;28;20218;-83
2021/08/02 15:17:47;;;;;;;3.08;2.20;;;;;;;23.36;47.13;95430.66;5008189;28;20286;-84
2021/08/02 15:20:16;;;;;;;2.10;1.90;;;;;;;23.64;46.90;95426.00;5008321;28;20207;-84
2021/08/02 15:22:48;;;;;;;2.88;1.98;;;;;;;23.85;47.90;95429.44;4990424;28;20199;-84
2021/08/02 15:25:17;;;;;;;2.38;1.90;;;;;;;23.81;46.29;95428.38;4988667;28;20230;-85
2021/08/02 15:27:48;;;;;;;2.03;1.80;;;;;;;23.65;46.37;95423.13;4988028;28;20703;-85
2021/08/02 15:30:15;;;;;;;1.50;1.40;;;;;;;23.62;46.38;95428.13;4988795;28;20218;-86
2021/08/02 15:32:46;;;;;;;2.58;1.90;;;;;;;23.53;46.90;95432.28;4988953;28;20227;-84
2021/08/02 15:35:14;;;;;;;1.70;1.60;;;;;;;23.32;45.70;95426.19;4987860;28;20227;-85
2021/08/02 15:37:42;;;;;;;2.78;1.80;;;;;;;23.35;46.63;95417.78;4988799;28;20239;-84
2021/08/02 15:40:11;;;;;;;1.75;1.60;;;;;;;23.39;46.07;95417.03;5005040;28;20214;-84
2021/08/02 15:42:38;;;;;;;1.75;1.65;;;;;;;23.50;46.63;95423.06;5008420;28;20225;-84
2021/08/02 15:45:08;;;;;;;1.83;1.73;;;;;;;23.44;47.60;95416.25;5007766;28;20291;-85
2021/08/02 15:47:38;;;;;;;2.15;1.67;;;;;;;23.39;46.84;95419.66;4988572;28;20204;-85
2021/08/02 15:50:07;;;;;;;3.72;3.42;;;;;;;23.33;46.79;95425.94;4989192;28;20674;-85
2021/08/02 15:52:39;;;;;;;5.95;5.45;;;;;;;23.36;46.96;95419.38;4995482;28;20218;-84
2021/08/02 15:55:08;;;;;;;3.15;1.95;;;;;;;23.53;47.43;95422.56;5007685;28;20606;-85
2021/08/02 15:57:45;;;;;;;1.88;1.73;;;;;;;23.72;46.71;95418.38;5009385;28;20203;-88
2021/08/02 16:00:19;;;;;;;2.17;1.88;;;;;;;23.82;46.57;95414.97;4989566;28;20203;-89
2021/08/02 16:02:59;;;;;;;2.00;1.77;;;;;;;23.64;45.31;95418.13;4988993;28;20210;-88
2021/08/02 16:08:25;;;;;;;1.85;1.75;;;;;;;23.22;47.56;95415.69;4988044;28;20203;-85
2021/08/02 16:11:06;;;;;;;1.70;1.60;;;;;;;23.18;47.63;95418.03;4996744;28;20199;-89
2021/08/02 16:13:34;;;;;;;2.00;1.80;;;;;;;23.28;48.21;95419.91;5008384;28;20219;-89
2021/08/02 16:16:04;;;;;;;2.05;1.85;;;;;;;23.45;47.49;95422.28;4988100;28;20978;-89
2021/08/02 16:18:46;;;;;;;1.70;1.60;;;;;;;23.43;46.68;95414.66;4991039;28;20971;-91
2021/08/02 16:21:20;;;;;;;1.83;1.67;;;;;;;23.26;46.02;95408.84;4988963;28;20258;-89
2021/08/02 16:23:54;;;;;;;2.70;1.80;;;;;;;23.18;46.79;95417.22;4989027;28;20199;-88
2021/08/02 16:26:21;;;;;;;18.70;16.80;;;;;;;23.05;47.93;95418.53;4990725;28;20234;-88
2021/08/02 16:28:48;;;;;;;5.95;5.43;;;;;;;22.95;48.79;95434.25;4995008;28;20294;-88
2021/08/02 16:31:27;;;;;;;6.25;5.72;;;;;;;22.90;49.06;95421.09;4992460;28;20200;-88
2021/08/02 16:33:54;;;;;;;3.20;2.80;;;;;;;22.90;49.18;95426.38;4993493;28;20223;-91
2021/08/02 16:36:22;;;;;;;2.72;2.50;;;;;;;22.83;49.07;95420.56;4991447;28;20310;-87
2021/08/02 16:38:48;;;;;;;4.57;2.50;;;;;;;22.78;49.95;95426.56;4998698;28;20191;-86
2021/08/02 16:41:18;;;;;;;2.42;2.22;;;;;;;22.77;48.74;95432.84;5012169;28;20223;-87
2021/08/02 16:43:45;;;;;;;2.90;2.40;;;;;;;22.67;49.24;95451.97;5014194;28;20210;-87
2021/08/02 16:46:12;;;;;;;2.78;1.70;;;;;;;22.64;49.93;95455.09;5010996;28;20229;-87
2021/08/02 16:49:17;;;;;;;2.28;2.08;;;;;;;22.65;50.53;95461.13;5014073;28;20199;-86